Terminal Aerodrome Forecast
Issued by NWS

Home | Current Version | Previous Version | Text Only | Print | Product List | Glossary On
Versions: 1 2 3 4 5 6 7 8 9 10 11 12 13 14 15 16 17
000
FTAK31 PAJN 292300
TAFAYA
TAF
PAYA 292323Z 3000/3024 36004KT P6SM SCT030 OVC060
     FM300600 06003KT P6SM OVC050
     FM300900 00000KT P6SM VCSH FEW025 OVC050
     FM301400 11004KT P6SM -SHRA SCT025 OVC035
      AMD LTD TO CLD VIS AND WIND 3001/3010=

USA.gov is the U.S. government's official web portal to all federal, state and local government web resources and services.